ORU weather

Juan Mendoza Airport
Oruro, Oruro Department, Bolivia

Public forecast

Using degrees Celsius for public forecast. Weather courtesy of forecast.io.

Current aviation weather report (METAR) for Juan Mendoza Airport

Report is more than 6 hours old.

Retrieved 2020/02/20 18:00 UTC (16 hours ago):

SLOR 201800Z 07006KT 7000 -RA FEW008 SCT014 FEW017CB OVC070 10/07 Q1034

Aviation forecast (TAF) for Juan Mendoza Airport

Forecast is more than 12 hours old.

Retrieved 2020/02/14 18:00 UTC (7 days ago):

TAF SLOR 141600Z 1418/1518 34007KT 9999 SCT017 FEW020CB SCT070 TX19/ 1420Z TN06/1510Z TEMPO 1419/1422 8000 TSRA BECMG 1423/1502 03005KT SCT013 SCT070